Time;durP1;ratioP1;P1;durP2;ratioP2;P2;SDS_P1;SDS_P2;PMS_P1;PMS_P2;Temp;Humidity;BMP_temperature;BMP_pressure;BME280_temperature;BME280_humidity;BME280_pressure;Samples;Min_cycle;Max_cycle;Signal;HPM_P1;HPM_P2
2022/12/30 00:00:56;;;;;;;0.90;0.60;;;8.00;99.90;;;;;;6088510;23;20213;-67
2022/12/30 00:03:24;;;;;;;0.70;0.60;;;7.90;99.90;;;;;;6096465;23;20224;-67
2022/12/30 00:05:51;;;;;;;0.98;0.70;;;7.90;99.90;;;;;;6109707;23;20190;-67
2022/12/30 00:11:03;;;;;;;2.15;1.00;;;7.80;99.90;;;;;;6118178;23;20281;-68
2022/12/30 00:33:20;;;;;;;1.17;0.95;;;7.50;99.90;;;;;;6090275;23;20290;-67
2022/12/30 00:35:47;;;;;;;1.05;0.82;;;7.50;99.90;;;;;;6092099;23;20277;-67
2022/12/30 00:38:14;;;;;;;1.88;0.70;;;7.50;99.90;;;;;;6107514;23;20279;-67
2022/12/30 00:43:07;;;;;;;2.00;1.17;;;7.50;99.90;;;;;;6085150;23;20653;-67
2022/12/30 00:43:27;;;;;;;1.20;0.80;;;7.40;99.90;;;;;;6088991;23;20303;-67
2022/12/30 00:45:54;;;;;;;0.97;0.80;;;7.40;99.90;;;;;;6094246;23;20264;-67
2022/12/30 00:56:38;;;;;;;1.08;0.80;;;7.30;99.90;;;;;;6103643;23;20660;-67
2022/12/30 00:59:05;;;;;;;1.35;0.80;;;7.20;99.90;;;;;;6095618;23;20276;-67
2022/12/30 01:01:32;;;;;;;0.90;0.70;;;7.20;99.90;;;;;;6103309;23;20230;-67
2022/12/30 01:04:01;;;;;;;0.70;0.70;;;7.20;99.90;;;;;;6092469;23;20596;-67
2022/12/30 01:06:28;;;;;;;1.38;0.80;;;7.30;99.90;;;;;;6102203;23;20272;-67
2022/12/30 01:08:55;;;;;;;1.15;0.80;;;7.20;99.90;;;;;;6114732;23;20223;-67
2022/12/30 01:11:22;;;;;;;1.00;0.80;;;7.20;99.90;;;;;;6089221;23;20223;-67
2022/12/30 01:13:49;;;;;;;1.45;1.20;;;7.10;99.90;;;;;;6086615;23;20220;-67
2022/12/30 01:16:17;;;;;;;0.90;0.80;;;7.10;99.90;;;;;;6096889;23;20200;-67
2022/12/30 01:18:45;;;;;;;1.13;0.82;;;7.20;99.90;;;;;;6111895;23;20194;-67
2022/12/30 01:21:13;;;;;;;1.13;0.85;;;7.20;99.90;;;;;;6068104;23;20658;-67
2022/12/30 01:23:40;;;;;;;2.50;0.90;;;7.20;99.90;;;;;;6091394;23;20270;-67
2022/12/30 01:26:07;;;;;;;0.77;0.77;;;7.20;99.90;;;;;;6107980;23;20372;-68
2022/12/30 01:28:36;;;;;;;0.85;0.80;;;7.20;99.90;;;;;;6115212;23;20268;-67
2022/12/30 01:31:06;;;;;;;1.25;0.75;;;7.30;99.90;;;;;;6092695;23;20221;-67
2022/12/30 01:33:33;;;;;;;2.38;1.17;;;7.30;99.90;;;;;;6090292;23;20725;-68
2022/12/30 01:36:00;;;;;;;0.80;0.70;;;7.30;99.90;;;;;;6091438;23;20614;-67
2022/12/30 01:38:30;;;;;;;0.98;0.60;;;7.30;99.90;;;;;;6099560;23;20266;-68
2022/12/30 01:40:57;;;;;;;0.60;0.60;;;7.30;99.90;;;;;;6093582;23;20524;-67
2022/12/30 01:43:41;;;;;;;1.35;0.70;;;7.30;99.90;;;;;;6101052;23;20225;-68
2022/12/30 01:46:09;;;;;;;0.90;0.80;;;7.40;99.90;;;;;;6109902;23;20250;-68
2022/12/30 01:48:36;;;;;;;1.10;1.00;;;7.40;99.90;;;;;;6089610;23;20276;-67
2022/12/30 01:51:07;;;;;;;1.60;1.00;;;7.40;99.90;;;;;;6102302;23;20193;-67
2022/12/30 01:53:39;;;;;;;1.70;0.98;;;7.40;99.90;;;;;;6099352;23;20339;-67
2022/12/30 01:56:10;;;;;;;0.90;0.80;;;7.50;99.90;;;;;;6090310;23;20351;-67
2022/12/30 01:58:42;;;;;;;1.40;0.70;;;7.50;99.90;;;;;;6090900;23;20265;-67
2022/12/30 02:01:09;;;;;;;1.33;0.80;;;7.50;99.90;;;;;;6115831;23;20239;-66
2022/12/30 02:03:39;;;;;;;1.33;0.70;;;7.40;99.90;;;;;;6089049;23;20641;-67
2022/12/30 02:06:09;;;;;;;0.82;0.70;;;7.40;99.90;;;;;;6114307;23;20207;-67
2022/12/30 02:08:37;;;;;;;1.15;0.80;;;7.40;99.90;;;;;;6097388;23;20197;-67
2022/12/30 02:11:06;;;;;;;1.10;0.80;;;7.40;99.90;;;;;;6099074;23;20501;-67
2022/12/30 02:13:33;;;;;;;1.92;0.98;;;7.30;99.90;;;;;;6098811;23;20220;-67
2022/12/30 02:16:25;;;;;;;0.70;0.70;;;7.30;99.90;;;;;;6111317;23;20204;-67
2022/12/30 02:19:13;;;;;;;0.90;0.80;;;7.10;99.90;;;;;;6098751;23;20192;-67
2022/12/30 02:21:58;;;;;;;1.00;0.70;;;7.10;99.90;;;;;;6090885;23;20192;-68
2022/12/30 02:24:52;;;;;;;1.33;1.00;;;6.90;99.90;;;;;;6107812;23;20273;-68
2022/12/30 02:27:40;;;;;;;1.45;0.82;;;6.90;99.90;;;;;;6103402;23;20189;-67
2022/12/30 02:30:13;;;;;;;1.00;0.90;;;6.90;99.90;;;;;;6116429;23;20196;-67
2022/12/30 02:32:54;;;;;;;1.80;0.90;;;6.80;99.90;;;;;;6107676;23;20619;-67
2022/12/30 02:35:30;;;;;;;1.75;0.80;;;6.80;99.90;;;;;;6092645;23;20284;-67
2022/12/30 02:38:08;;;;;;;1.55;0.90;;;6.80;99.90;;;;;;6100918;23;20286;-67
2022/12/30 02:46:15;;;;;;;0.77;0.77;;;6.90;99.90;;;;;;6098480;23;20326;-67
2022/12/30 02:48:48;;;;;;;1.35;0.70;;;6.80;99.90;;;;;;6091332;23;20280;-67
2022/12/30 02:54:01;;;;;;;1.00;0.75;;;6.80;99.90;;;;;;6092895;23;20223;-67
2022/12/30 02:56:29;;;;;;;0.80;0.80;;;6.80;99.90;;;;;;6103774;23;20605;-67
2022/12/30 03:04:47;;;;;;;1.80;0.80;;;6.80;99.90;;;;;;6043190;23;20265;-66
2022/12/30 03:07:25;;;;;;;1.70;0.70;;;6.80;99.90;;;;;;6098851;23;20627;-66
2022/12/30 03:12:55;;;;;;;1.35;0.90;;;6.80;99.90;;;;;;6098213;23;20203;-66
2022/12/30 03:15:29;;;;;;;1.10;0.70;;;6.80;99.90;;;;;;6075021;23;20276;-67
2022/12/30 03:17:56;;;;;;;0.95;0.80;;;6.80;99.90;;;;;;6107374;23;20242;-67
2022/12/30 03:20:26;;;;;;;1.15;0.60;;;6.80;99.90;;;;;;6100411;23;20219;-67
2022/12/30 03:28:29;;;;;;;0.63;0.60;;;6.80;99.90;;;;;;6118010;23;20592;-66
2022/12/30 03:31:00;;;;;;;0.90;0.90;;;6.70;99.90;;;;;;6106648;23;20188;-67
2022/12/30 03:33:27;;;;;;;0.80;0.80;;;6.60;99.90;;;;;;6097347;23;20215;-67
2022/12/30 03:35:58;;;;;;;0.98;0.90;;;6.60;99.90;;;;;;6103478;23;20216;-67
2022/12/30 03:38:31;;;;;;;1.00;0.90;;;6.50;99.90;;;;;;6106133;23;20191;-67
2022/12/30 03:41:02;;;;;;;2.85;1.02;;;6.40;99.90;;;;;;6106146;23;20267;-67
2022/12/30 03:43:29;;;;;;;1.08;0.98;;;6.30;99.90;;;;;;6105681;23;20224;-67
2022/12/30 03:45:56;;;;;;;1.10;0.93;;;6.20;99.90;;;;;;6102140;23;20892;-67
2022/12/30 03:48:23;;;;;;;1.95;1.10;;;6.20;99.90;;;;;;6089921;23;20295;-67
2022/12/30 03:50:50;;;;;;;3.58;0.88;;;6.20;99.90;;;;;;6104641;23;20639;-67
2022/12/30 03:53:18;;;;;;;3.15;1.13;;;6.10;99.90;;;;;;6091092;23;20220;-67
2022/12/30 03:55:45;;;;;;;1.52;0.82;;;6.30;99.90;;;;;;6100603;23;20295;-67
2022/12/30 03:58:13;;;;;;;1.20;1.10;;;6.00;99.90;;;;;;6108320;23;20262;-66
2022/12/30 04:00:39;;;;;;;1.23;1.00;;;6.00;99.90;;;;;;6102269;23;20192;-66
2022/12/30 04:03:06;;;;;;;1.17;1.08;;;6.00;99.90;;;;;;6100178;23;20250;-67
2022/12/30 04:05:33;;;;;;;2.17;1.10;;;6.00;99.90;;;;;;6094889;23;20192;-66
2022/12/30 04:08:00;;;;;;;1.40;1.30;;;5.90;99.90;;;;;;6104619;23;20247;-66
2022/12/30 04:10:29;;;;;;;1.58;1.20;;;5.80;99.90;;;;;;6113441;23;20219;-66
2022/12/30 04:12:56;;;;;;;1.30;1.20;;;5.70;99.90;;;;;;6088614;23;20599;-66
2022/12/30 04:15:23;;;;;;;2.97;1.58;;;5.70;99.90;;;;;;6093440;23;20200;-66
2022/12/30 04:17:50;;;;;;;1.70;1.60;;;5.60;99.90;;;;;;6098698;23;20194;-66
2022/12/30 04:20:17;;;;;;;1.55;1.45;;;5.60;99.90;;;;;;6095831;23;20265;-66
2022/12/30 04:22:44;;;;;;;2.20;1.50;;;5.60;99.90;;;;;;6086175;23;20687;-67
2022/12/30 04:25:11;;;;;;;2.58;1.70;;;5.50;99.90;;;;;;6090432;23;20195;-66
2022/12/30 04:27:40;;;;;;;1.42;1.33;;;5.50;99.90;;;;;;6100774;23;20196;-66
2022/12/30 04:30:08;;;;;;;1.58;1.48;;;5.50;99.90;;;;;;6087818;23;20218;-66
2022/12/30 04:32:35;;;;;;;2.10;1.27;;;5.50;99.90;;;;;;6090381;23;20592;-66
2022/12/30 04:35:02;;;;;;;1.90;1.20;;;5.40;99.90;;;;;;6091184;23;20236;-66
2022/12/30 04:37:29;;;;;;;2.00;1.50;;;5.40;99.90;;;;;;6108652;23;20465;-66
2022/12/30 04:39:56;;;;;;;1.60;1.50;;;5.50;99.90;;;;;;6096477;23;20525;-66
2022/12/30 04:42:23;;;;;;;3.10;1.20;;;5.50;99.90;;;;;;6093339;23;20220;-66
2022/12/30 04:44:51;;;;;;;1.33;1.23;;;5.40;99.90;;;;;;6089640;23;20223;-66
2022/12/30 04:47:18;;;;;;;1.50;1.30;;;5.40;99.90;;;;;;6088285;23;20271;-66
2022/12/30 04:49:45;;;;;;;3.38;1.40;;;5.40;99.90;;;;;;6093939;23;20219;-66
2022/12/30 04:52:12;;;;;;;1.35;1.25;;;5.30;99.90;;;;;;6102049;23;20199;-66
2022/12/30 04:54:39;;;;;;;1.33;1.23;;;5.30;99.90;;;;;;6105039;23;20231;-67
2022/12/30 04:57:06;;;;;;;1.30;1.20;;;5.30;99.90;;;;;;6108518;23;20195;-67
2022/12/30 04:59:33;;;;;;;1.42;1.33;;;5.30;99.90;;;;;;6107316;23;20729;-67
2022/12/30 05:02:01;;;;;;;1.60;1.13;;;5.30;99.90;;;;;;6089499;23;20279;-67
2022/12/30 05:04:29;;;;;;;1.52;1.10;;;5.30;99.90;;;;;;6107933;23;20223;-67
2022/12/30 05:06:56;;;;;;;2.28;1.10;;;5.20;99.90;;;;;;6096007;23;20223;-67
2022/12/30 05:09:23;;;;;;;2.95;1.17;;;5.20;99.90;;;;;;6103856;23;20614;-67
2022/12/30 05:11:51;;;;;;;1.52;1.27;;;5.10;99.90;;;;;;6105466;23;20584;-67
2022/12/30 05:14:18;;;;;;;1.73;1.15;;;5.10;99.90;;;;;;6108522;23;20330;-66
2022/12/30 05:16:44;;;;;;;1.13;1.00;;;5.10;99.90;;;;;;6098167;23;20223;-67
2022/12/30 05:19:13;;;;;;;1.48;1.23;;;5.00;99.90;;;;;;6105568;23;20622;-67
2022/12/30 05:21:40;;;;;;;1.45;1.35;;;5.00;99.90;;;;;;6072517;23;20192;-67
2022/12/30 05:26:55;;;;;;;1.40;1.27;;;5.00;99.90;;;;;;6102143;23;20270;-67
2022/12/30 05:29:22;;;;;;;1.50;1.40;;;5.00;99.90;;;;;;6104532;23;20214;-67
2022/12/30 05:31:49;;;;;;;2.75;1.45;;;4.90;99.90;;;;;;6092217;23;20207;-67
2022/12/30 05:34:18;;;;;;;1.70;1.60;;;4.90;99.90;;;;;;6084771;23;20261;-67
2022/12/30 05:36:44;;;;;;;2.65;1.20;;;4.90;99.90;;;;;;6088816;23;20499;-67
2022/12/30 05:39:12;;;;;;;1.30;1.20;;;4.90;99.90;;;;;;6106232;23;20670;-67
2022/12/30 05:41:39;;;;;;;1.25;0.90;;;4.90;99.90;;;;;;6113350;23;20191;-67
2022/12/30 05:44:06;;;;;;;1.15;1.00;;;4.90;99.90;;;;;;6114923;23;20228;-67
2022/12/30 05:46:34;;;;;;;1.17;1.08;;;5.00;99.90;;;;;;6101356;23;20191;-67
2022/12/30 05:49:01;;;;;;;1.13;1.02;;;5.00;99.90;;;;;;6090047;23;20219;-67
2022/12/30 05:51:29;;;;;;;1.35;0.90;;;5.10;99.90;;;;;;6100863;23;20636;-66
2022/12/30 05:53:56;;;;;;;1.10;1.00;;;5.20;99.90;;;;;;6093443;23;20239;-66
2022/12/30 05:56:23;;;;;;;1.35;1.00;;;5.20;99.90;;;;;;6099312;23;20664;-67
2022/12/30 05:58:50;;;;;;;1.17;0.90;;;5.20;99.90;;;;;;6116867;23;20191;-67
2022/12/30 06:01:17;;;;;;;0.95;0.95;;;5.30;99.90;;;;;;6110724;23;20268;-67
2022/12/30 06:03:45;;;;;;;2.45;1.00;;;5.30;99.90;;;;;;6074892;23;20224;-67
2022/12/30 06:06:11;;;;;;;2.72;1.23;;;5.30;99.90;;;;;;6092470;23;20271;-67
2022/12/30 06:08:40;;;;;;;1.27;1.10;;;5.20;99.90;;;;;;6094384;23;20199;-67
2022/12/30 06:11:07;;;;;;;0.98;0.93;;;5.20;99.90;;;;;;6117339;23;20191;-67
2022/12/30 06:13:35;;;;;;;1.52;0.85;;;5.10;99.90;;;;;;6088610;23;20216;-67
2022/12/30 06:16:02;;;;;;;1.00;0.90;;;5.10;99.90;;;;;;6096428;23;20265;-67
2022/12/30 06:18:29;;;;;;;1.10;1.00;;;5.10;99.90;;;;;;6109457;23;20188;-67
2022/12/30 06:20:56;;;;;;;1.00;0.90;;;5.00;99.90;;;;;;6088201;23;20598;-66
2022/12/30 06:23:24;;;;;;;1.77;0.93;;;5.00;99.90;;;;;;6110758;23;20228;-67
2022/12/30 06:25:54;;;;;;;1.20;0.95;;;5.00;99.90;;;;;;6090332;23;20275;-66
2022/12/30 06:28:21;;;;;;;0.95;0.82;;;5.00;99.90;;;;;;6090513;23;20188;-66
2022/12/30 06:30:49;;;;;;;0.80;0.80;;;5.10;99.90;;;;;;6090503;23;20191;-66
2022/12/30 06:33:17;;;;;;;1.50;1.00;;;5.10;99.90;;;;;;6089771;23;20220;-67
2022/12/30 06:35:45;;;;;;;0.95;0.85;;;5.10;99.90;;;;;;6099562;23;20270;-67
2022/12/30 06:38:12;;;;;;;1.45;0.95;;;5.10;99.90;;;;;;6117901;23;20547;-67
2022/12/30 06:40:39;;;;;;;1.80;1.20;;;5.10;99.90;;;;;;6113843;23;20219;-67
2022/12/30 06:43:08;;;;;;;1.08;0.95;;;5.10;99.90;;;;;;6114517;23;20211;-66
2022/12/30 06:45:35;;;;;;;1.90;1.08;;;5.10;99.90;;;;;;6091621;23;20199;-67
2022/12/30 06:48:03;;;;;;;1.05;0.95;;;5.00;99.90;;;;;;6073965;23;20192;-67
2022/12/30 06:50:30;;;;;;;2.72;1.40;;;4.90;99.90;;;;;;6089021;23;20275;-67
2022/12/30 06:52:57;;;;;;;1.33;1.17;;;4.90;99.90;;;;;;6113972;23;20211;-66
2022/12/30 06:55:24;;;;;;;1.92;1.40;;;4.80;99.90;;;;;;6105974;23;20195;-67
2022/12/30 06:57:51;;;;;;;1.30;1.20;;;4.70;99.90;;;;;;6118614;23;20270;-66
2022/12/30 07:00:19;;;;;;;1.23;1.15;;;4.70;99.90;;;;;;6108889;23;20198;-67
2022/12/30 07:02:47;;;;;;;1.45;1.30;;;4.70;99.90;;;;;;6104974;23;20200;-67
2022/12/30 07:05:14;;;;;;;1.83;1.73;;;4.70;99.90;;;;;;6083795;23;20215;-66
2022/12/30 07:07:41;;;;;;;2.28;1.45;;;4.60;99.90;;;;;;6080682;23;20275;-67
2022/12/30 07:10:08;;;;;;;1.77;1.58;;;4.60;99.90;;;;;;6091368;23;20184;-67
2022/12/30 07:12:35;;;;;;;4.85;2.10;;;4.60;99.90;;;;;;6120641;23;20190;-67
2022/12/30 07:15:02;;;;;;;1.45;1.35;;;4.60;99.90;;;;;;6100773;23;20204;-67
2022/12/30 07:17:32;;;;;;;1.70;1.60;;;4.60;99.90;;;;;;6086503;23;20199;-67
2022/12/30 07:19:59;;;;;;;1.80;1.70;;;4.60;99.90;;;;;;6099891;23;20245;-67
2022/12/30 07:22:26;;;;;;;2.65;1.85;;;4.60;99.90;;;;;;6112167;23;20226;-67
2022/12/30 07:24:53;;;;;;;1.60;1.50;;;4.50;99.90;;;;;;6097746;23;20301;-66
2022/12/30 07:27:20;;;;;;;2.35;1.85;;;4.50;99.90;;;;;;6091697;23;20238;-67
2022/12/30 07:29:47;;;;;;;2.30;1.70;;;4.50;99.90;;;;;;6100344;23;20653;-67
2022/12/30 07:32:14;;;;;;;2.47;2.28;;;4.60;99.90;;;;;;6062327;23;21526;-67
2022/12/30 07:34:43;;;;;;;2.60;2.40;;;4.60;99.90;;;;;;6065141;23;20228;-67
2022/12/30 07:37:10;;;;;;;2.35;2.25;;;4.60;99.90;;;;;;6068984;23;20185;-68
2022/12/30 07:39:38;;;;;;;3.25;2.35;;;4.60;99.90;;;;;;6083745;23;20195;-67
2022/12/30 07:42:05;;;;;;;2.45;2.30;;;4.70;99.90;;;;;;6069468;23;20224;-68
2022/12/30 07:44:32;;;;;;;2.45;2.25;;;4.80;99.90;;;;;;6061828;23;20228;-67
2022/12/30 07:46:59;;;;;;;3.08;2.30;;;4.90;99.90;;;;;;6069013;23;20188;-67
2022/12/30 07:49:26;;;;;;;2.60;2.40;;;4.90;99.90;;;;;;6077712;23;20308;-67
2022/12/30 07:51:54;;;;;;;2.20;2.00;;;4.90;99.90;;;;;;6065917;23;20295;-68
2022/12/30 07:54:22;;;;;;;2.45;2.25;;;4.90;99.90;;;;;;6060718;23;20217;-68
2022/12/30 07:56:49;;;;;;;2.22;1.95;;;5.00;99.90;;;;;;6076196;23;20226;-68
2022/12/30 07:59:16;;;;;;;1.90;1.80;;;5.00;99.90;;;;;;6068364;23;20188;-68
2022/12/30 08:01:43;;;;;;;1.88;1.77;;;5.10;99.90;;;;;;6077696;23;20188;-68
2022/12/30 08:04:10;;;;;;;4.57;2.03;;;5.10;99.90;;;;;;6086895;23;20310;-68
2022/12/30 08:06:37;;;;;;;2.20;2.00;;;5.20;99.90;;;;;;6097868;23;20257;-68
2022/12/30 08:09:06;;;;;;;1.85;1.75;;;5.30;99.90;;;;;;6087274;23;20261;-68
2022/12/30 08:11:34;;;;;;;2.42;2.20;;;5.30;99.90;;;;;;6091887;23;20200;-74
2022/12/30 08:14:00;;;;;;;2.22;2.03;;;5.40;99.90;;;;;;6080705;23;20400;-69
2022/12/30 08:16:28;;;;;;;2.00;1.77;;;5.40;99.90;;;;;;6061282;23;20250;-69
2022/12/30 08:18:54;;;;;;;3.00;2.35;;;5.50;99.90;;;;;;6088547;23;20275;-69
2022/12/30 08:21:22;;;;;;;2.47;2.00;;;5.50;99.90;;;;;;6088942;23;20203;-69
2022/12/30 08:23:49;;;;;;;2.60;1.80;;;5.60;99.90;;;;;;6090370;23;20230;-69
2022/12/30 08:26:20;;;;;;;2.10;2.00;;;5.60;99.90;;;;;;6091290;23;20275;-69
2022/12/30 08:28:47;;;;;;;2.10;1.90;;;5.70;99.90;;;;;;6090983;23;20191;-70
2022/12/30 08:31:17;;;;;;;1.88;1.77;;;5.70;99.90;;;;;;6068545;23;20537;-69
2022/12/30 08:33:44;;;;;;;1.80;1.70;;;5.70;99.90;;;;;;6062536;23;20676;-69
2022/12/30 08:36:14;;;;;;;1.67;1.45;;;5.80;99.90;;;;;;6070707;23;20184;-69
2022/12/30 08:38:44;;;;;;;1.95;1.80;;;5.80;99.90;;;;;;6081706;23;20188;-70
2022/12/30 08:41:14;;;;;;;2.30;2.10;;;5.90;99.90;;;;;;6089946;23;20187;-68
2022/12/30 08:43:43;;;;;;;2.08;1.80;;;5.90;99.90;;;;;;6090704;23;20753;-69
2022/12/30 08:46:10;;;;;;;3.42;2.65;;;6.00;99.90;;;;;;6090433;23;20247;-69
2022/12/30 08:48:37;;;;;;;2.47;2.28;;;6.10;99.90;;;;;;6089629;23;20269;-69
2022/12/30 08:51:06;;;;;;;2.45;2.17;;;6.10;99.90;;;;;;6090317;23;20196;-69
2022/12/30 08:53:33;;;;;;;2.63;2.10;;;6.20;99.90;;;;;;6080990;23;20212;-69
2022/12/30 08:56:03;;;;;;;2.65;1.90;;;6.20;99.90;;;;;;6090512;23;20215;-68
2022/12/30 08:58:31;;;;;;;1.83;1.73;;;6.20;99.90;;;;;;6090896;23;20192;-69
2022/12/30 09:01:00;;;;;;;2.67;1.60;;;6.20;99.90;;;;;;6090128;23;20199;-68
2022/12/30 09:03:27;;;;;;;1.95;1.75;;;6.30;99.90;;;;;;6088689;23;20579;-69
2022/12/30 09:05:55;;;;;;;2.58;1.77;;;6.60;99.90;;;;;;6090236;23;20216;-69
2022/12/30 09:08:22;;;;;;;1.60;1.50;;;7.00;99.90;;;;;;6084405;23;20183;-69
2022/12/30 09:11:00;;;;;;;1.83;1.30;;;7.30;99.90;;;;;;6073279;23;20265;-69
2022/12/30 09:13:28;;;;;;;1.63;1.40;;;7.70;99.90;;;;;;6061588;23;20239;-69
2022/12/30 09:15:55;;;;;;;1.58;1.40;;;8.10;99.90;;;;;;6061281;23;20197;-69
2022/12/30 09:18:24;;;;;;;1.75;1.30;;;8.30;99.90;;;;;;6084931;23;20547;-70
2022/12/30 09:20:51;;;;;;;1.80;1.48;;;8.50;99.90;;;;;;6081403;23;20192;-69
2022/12/30 09:23:18;;;;;;;2.40;1.35;;;8.60;99.90;;;;;;6089124;23;20208;-70
2022/12/30 09:25:45;;;;;;;1.63;1.40;;;8.50;99.90;;;;;;6090604;23;20299;-70
2022/12/30 09:28:12;;;;;;;1.60;1.50;;;8.70;99.90;;;;;;6090254;23;20195;-70
2022/12/30 09:30:39;;;;;;;1.63;1.50;;;8.70;99.90;;;;;;6090004;23;20215;-70
2022/12/30 09:33:06;;;;;;;2.28;1.30;;;8.70;99.90;;;;;;6089903;23;20282;-70
2022/12/30 09:35:35;;;;;;;1.48;1.20;;;9.00;99.90;;;;;;6089174;23;20211;-70
2022/12/30 09:38:02;;;;;;;2.10;1.50;;;9.40;99.90;;;;;;6090136;23;20263;-68
2022/12/30 09:40:44;;;;;;;1.65;1.55;;;9.60;99.90;;;;;;6090040;23;20195;-70
2022/12/30 09:43:21;;;;;;;1.60;1.50;;;9.80;99.90;;;;;;6089711;23;20291;-70
2022/12/30 09:45:59;;;;;;;2.03;1.50;;;10.20;99.90;;;;;;6090035;23;20329;-70
2022/12/30 09:48:31;;;;;;;1.70;1.60;;;10.30;99.90;;;;;;6090179;23;20187;-70
2022/12/30 09:51:05;;;;;;;2.50;1.65;;;10.40;99.90;;;;;;6089146;23;20199;-71
2022/12/30 09:53:39;;;;;;;1.95;1.27;;;10.50;99.90;;;;;;6090335;23;20211;-70
2022/12/30 09:56:14;;;;;;;1.88;1.50;;;10.40;99.90;;;;;;6091301;23;20215;-70
2022/12/30 09:58:44;;;;;;;1.40;1.30;;;10.60;99.90;;;;;;6091720;23;20279;-70
2022/12/30 10:01:23;;;;;;;1.35;1.25;;;10.80;99.90;;;;;;6091094;23;20199;-70
2022/12/30 10:03:52;;;;;;;1.52;1.30;;;10.70;99.90;;;;;;6091113;23;20253;-70
2022/12/30 10:06:26;;;;;;;1.92;1.40;;;10.60;99.90;;;;;;6090142;23;20226;-70
2022/12/30 10:09:19;;;;;;;1.20;1.08;;;10.70;99.90;;;;;;6090817;23;20602;-70
2022/12/30 10:11:59;;;;;;;3.38;1.60;;;10.90;99.90;;;;;;6091576;23;20234;-70
2022/12/30 10:14:34;;;;;;;3.00;1.60;;;10.90;99.90;;;;;;6090868;23;20207;-69
2022/12/30 10:17:09;;;;;;;1.70;1.45;;;10.90;99.90;;;;;;6090637;23;20267;-69
2022/12/30 10:19:49;;;;;;;2.20;1.30;;;11.00;99.90;;;;;;6090235;23;20266;-70
2022/12/30 10:22:27;;;;;;;1.40;1.30;;;11.00;99.90;;;;;;6091468;23;20415;-70
2022/12/30 10:25:08;;;;;;;1.65;1.55;;;11.10;99.90;;;;;;6090992;23;20504;-72
2022/12/30 10:27:42;;;;;;;2.80;1.55;;;10.90;99.90;;;;;;6090979;23;20190;-70
2022/12/30 10:30:17;;;;;;;2.53;1.30;;;10.90;99.90;;;;;;6077037;23;20191;-70
2022/12/30 10:32:50;;;;;;;1.65;1.55;;;10.90;99.90;;;;;;6091328;23;20207;-70
2022/12/30 10:35:22;;;;;;;2.90;2.20;;;10.90;99.90;;;;;;6086100;23;20291;-70
2022/12/30 10:37:55;;;;;;;2.50;1.75;;;10.90;99.90;;;;;;6090807;23;20692;-70
2022/12/30 10:40:28;;;;;;;2.22;1.63;;;11.00;99.90;;;;;;6091159;23;20176;-70
2022/12/30 10:43:10;;;;;;;1.85;1.70;;;11.00;99.90;;;;;;6091494;23;20287;-70
2022/12/30 10:45:53;;;;;;;1.60;1.50;;;11.20;99.90;;;;;;6090191;23;20341;-70
2022/12/30 10:48:53;;;;;;;1.50;1.40;;;11.50;99.90;;;;;;6089899;23;20188;-70
2022/12/30 10:51:21;;;;;;;2.00;1.90;;;11.50;99.90;;;;;;6090999;23;20181;-70
2022/12/30 10:53:52;;;;;;;2.38;2.10;;;11.50;99.90;;;;;;6077333;23;20753;-70
2022/12/30 10:56:23;;;;;;;1.75;1.65;;;11.40;99.90;;;;;;6062482;23;20174;-70
2022/12/30 10:58:51;;;;;;;1.50;1.40;;;11.40;99.90;;;;;;6084961;23;20188;-69
2022/12/30 11:01:22;;;;;;;1.70;1.60;;;11.40;99.90;;;;;;6090465;23;20778;-71
2022/12/30 11:03:50;;;;;;;2.63;1.80;;;11.60;99.90;;;;;;6089415;23;20296;-70
2022/12/30 11:06:22;;;;;;;1.50;1.40;;;11.70;99.90;;;;;;6090778;23;20797;-69
2022/12/30 11:08:52;;;;;;;2.47;1.73;;;11.70;99.90;;;;;;6091183;23;20180;-69
2022/12/30 11:14:42;;;;;;;2.40;1.63;;;11.70;99.90;;;;;;6075669;23;20485;-69
2022/12/30 11:17:11;;;;;;;2.10;1.63;;;12.10;99.90;;;;;;6072706;23;20194;-70
2022/12/30 11:19:38;;;;;;;2.40;1.40;;;12.10;99.90;;;;;;6068714;23;20920;-69
2022/12/30 11:22:05;;;;;;;1.50;1.40;;;12.10;99.90;;;;;;6091118;23;20490;-70
2022/12/30 11:24:34;;;;;;;2.97;1.40;;;11.90;99.90;;;;;;6090912;23;20427;-70
2022/12/30 11:27:01;;;;;;;1.60;1.30;;;12.10;99.90;;;;;;6090805;23;21040;-69
2022/12/30 11:29:33;;;;;;;2.97;1.80;;;12.10;99.90;;;;;;6086981;23;20431;-70
2022/12/30 11:32:08;;;;;;;1.50;1.40;;;11.90;99.90;;;;;;6070801;23;20875;-68
2022/12/30 11:34:39;;;;;;;1.30;1.10;;;11.90;99.90;;;;;;6090845;23;20558;-70
2022/12/30 11:37:24;;;;;;;1.20;1.10;;;11.70;99.90;;;;;;6068589;23;20221;-69
2022/12/30 11:39:53;;;;;;;1.90;1.00;;;11.80;99.90;;;;;;6069945;23;20189;-70
2022/12/30 11:42:30;;;;;;;1.40;1.00;;;12.00;99.90;;;;;;6091207;23;20819;-70
2022/12/30 11:45:16;;;;;;;0.97;0.80;;;12.10;99.90;;;;;;6090868;23;20450;-70
2022/12/30 11:47:45;;;;;;;1.90;1.20;;;12.10;99.90;;;;;;6090854;23;20497;-69
2022/12/30 11:50:17;;;;;;;0.90;0.80;;;12.00;99.90;;;;;;6090222;23;20484;-70
2022/12/30 11:52:51;;;;;;;1.47;1.20;;;11.80;99.90;;;;;;6091140;23;20533;-71
2022/12/30 11:55:23;;;;;;;2.65;0.90;;;11.50;99.90;;;;;;6090830;23;20414;-69
2022/12/30 11:57:51;;;;;;;0.80;0.80;;;11.50;99.90;;;;;;6076137;23;20928;-71
2022/12/30 12:00:37;;;;;;;1.25;0.93;;;11.40;99.90;;;;;;6089191;23;20657;-70
2022/12/30 12:03:08;;;;;;;1.45;0.80;;;11.10;99.90;;;;;;6091341;23;20204;-70
2022/12/30 12:05:40;;;;;;;0.93;0.90;;;10.90;99.90;;;;;;6090462;23;20220;-69
2022/12/30 12:08:15;;;;;;;0.93;0.85;;;10.60;99.90;;;;;;6090496;23;20195;-69
2022/12/30 12:10:51;;;;;;;1.17;1.08;;;10.60;99.90;;;;;;6090643;23;20179;-69
2022/12/30 12:13:27;;;;;;;1.45;1.00;;;10.50;99.90;;;;;;6090825;23;20208;-69
2022/12/30 12:15:57;;;;;;;1.20;0.95;;;10.40;99.90;;;;;;6088358;23;20229;-69
2022/12/30 12:18:28;;;;;;;1.25;1.08;;;10.30;99.90;;;;;;6091221;23;20192;-70
2022/12/30 12:21:05;;;;;;;1.15;1.05;;;10.20;99.90;;;;;;6090087;23;20255;-69
2022/12/30 12:23:45;;;;;;;1.00;1.00;;;10.20;99.90;;;;;;6090818;23;20215;-70
2022/12/30 12:26:19;;;;;;;1.13;0.95;;;10.10;99.90;;;;;;6090588;23;20515;-69
2022/12/30 12:28:49;;;;;;;1.00;0.90;;;10.10;99.90;;;;;;6090105;23;20259;-69
2022/12/30 12:31:42;;;;;;;1.95;1.02;;;10.00;99.90;;;;;;6090881;23;20261;-70
2022/12/30 12:34:21;;;;;;;1.65;1.02;;;9.90;99.90;;;;;;6090431;23;20212;-70
2022/12/30 12:37:02;;;;;;;1.55;0.95;;;9.90;99.90;;;;;;6090463;23;20180;-69
2022/12/30 12:39:44;;;;;;;1.40;1.08;;;9.90;99.90;;;;;;6090414;23;20192;-70
2022/12/30 12:42:17;;;;;;;1.40;1.30;;;10.00;99.90;;;;;;6062198;23;20176;-69
2022/12/30 12:45:28;;;;;;;1.77;1.20;;;10.00;99.90;;;;;;6084099;23;20188;-69
2022/12/30 12:48:25;;;;;;;1.00;0.90;;;9.90;99.90;;;;;;6090232;23;20226;-69
2022/12/30 12:51:08;;;;;;;1.27;1.17;;;9.90;99.90;;;;;;6071556;23;20598;-70
2022/12/30 12:54:00;;;;;;;1.30;1.20;;;10.00;99.90;;;;;;6082550;23;20698;-69
2022/12/30 12:56:46;;;;;;;1.30;1.20;;;9.90;99.90;;;;;;6090197;23;20267;-69
2022/12/30 12:59:31;;;;;;;1.30;1.20;;;9.90;99.90;;;;;;6083533;23;20191;-69
2022/12/30 13:02:06;;;;;;;1.67;1.10;;;9.80;99.90;;;;;;6071292;23;20218;-69
2022/12/30 13:04:43;;;;;;;1.55;1.27;;;9.80;99.90;;;;;;6090591;23;20188;-69
2022/12/30 13:07:24;;;;;;;1.60;1.10;;;9.80;99.90;;;;;;6090729;23;20243;-69
2022/12/30 13:10:04;;;;;;;1.60;1.40;;;9.70;99.90;;;;;;6089836;23;20218;-68
2022/12/30 13:12:36;;;;;;;1.48;1.25;;;9.70;99.90;;;;;;6081853;23;20199;-69
2022/12/30 13:15:21;;;;;;;1.30;1.20;;;9.70;99.90;;;;;;6068098;23;20235;-69
2022/12/30 13:17:49;;;;;;;1.70;1.20;;;9.70;99.90;;;;;;6078302;23;20640;-69
2022/12/30 13:20:20;;;;;;;2.90;1.13;;;9.60;99.90;;;;;;6084307;23;20269;-69
2022/12/30 13:22:49;;;;;;;1.23;1.00;;;9.60;99.90;;;;;;6090325;23;20269;-68
2022/12/30 13:25:21;;;;;;;1.33;1.20;;;9.70;99.90;;;;;;6089858;23;20259;-68
2022/12/30 13:27:50;;;;;;;1.30;1.10;;;9.60;99.90;;;;;;6089906;23;20644;-69
2022/12/30 13:30:21;;;;;;;1.05;0.90;;;9.60;99.90;;;;;;6091115;23;20267;-69
2022/12/30 13:32:56;;;;;;;1.27;1.10;;;9.60;99.90;;;;;;6091685;23;20239;-69
2022/12/30 13:35:38;;;;;;;2.65;1.00;;;9.70;99.90;;;;;;6086272;23;20196;-69
2022/12/30 13:38:19;;;;;;;1.30;1.00;;;9.60;99.90;;;;;;6074896;23;20272;-69
2022/12/30 13:40:57;;;;;;;1.02;0.98;;;9.70;99.90;;;;;;6090297;23;20210;-83
2022/12/30 13:43:34;;;;;;;1.45;0.88;;;9.60;99.90;;;;;;6073531;23;20682;-69
2022/12/30 13:46:03;;;;;;;1.30;1.20;;;9.70;99.90;;;;;;6077957;23;20599;-67
2022/12/30 13:48:33;;;;;;;1.35;1.02;;;9.60;99.90;;;;;;6084650;23;20184;-70
2022/12/30 13:51:04;;;;;;;1.15;0.90;;;9.60;99.90;;;;;;6078870;23;20196;-69
2022/12/30 13:53:36;;;;;;;2.85;1.33;;;9.60;99.90;;;;;;6078142;23;20218;-68
2022/12/30 13:56:06;;;;;;;1.70;1.17;;;9.60;99.90;;;;;;6078169;23;20199;-68
2022/12/30 13:58:36;;;;;;;1.27;1.17;;;9.60;99.90;;;;;;6077998;23;20176;-68
2022/12/30 14:01:27;;;;;;;1.20;0.82;;;9.60;99.90;;;;;;6075118;23;20194;-70
2022/12/30 14:04:27;;;;;;;2.72;1.15;;;9.60;99.90;;;;;;6071030;23;20619;-69
2022/12/30 14:06:55;;;;;;;1.30;1.20;;;9.60;99.90;;;;;;6084995;23;20218;-69
2022/12/30 14:09:24;;;;;;;1.08;0.80;;;9.60;99.90;;;;;;6074016;23;20209;-68
2022/12/30 14:12:28;;;;;;;2.15;1.10;;;9.60;99.90;;;;;;6078939;23;20184;-81
2022/12/30 14:15:01;;;;;;;1.55;1.10;;;9.60;99.90;;;;;;6062271;23;20286;-69